createdAt,value
2018-07-23T00:01:08.985Z,0.10
2018-07-23T00:04:08.960Z,0.20
2018-07-23T00:07:08.910Z,0.20
2018-07-23T00:10:08.894Z,0.10
2018-07-23T00:13:08.870Z,0.10
2018-07-23T00:16:08.831Z,0.10
2018-07-23T00:19:08.766Z,0.20
2018-07-23T00:22:08.764Z,0.10
2018-07-23T00:25:08.701Z,0.10
2018-07-23T00:28:08.696Z,0.20
2018-07-23T00:31:08.649Z,0.20
2018-07-23T00:34:08.624Z,0.20
2018-07-23T00:37:08.570Z,0.10
2018-07-23T00:40:08.559Z,0.20
2018-07-23T00:43:08.492Z,0.20
2018-07-23T00:46:08.492Z,0.20
2018-07-23T00:49:08.431Z,0.20
2018-07-23T00:52:08.421Z,0.20
2018-07-23T00:55:08.355Z,0.20
2018-07-23T00:58:08.353Z,0.10
2018-07-23T01:01:08.298Z,0.10
2018-07-23T01:04:08.344Z,0.20
2018-07-23T01:07:08.305Z,0.20
2018-07-23T01:10:08.221Z,0.10
2018-07-23T01:13:08.150Z,0.20
2018-07-23T01:16:08.140Z,0.20
2018-07-23T01:19:08.100Z,0.20
2018-07-23T01:22:08.063Z,0.20
2018-07-23T01:25:08.019Z,0.20
2018-07-23T01:28:08.009Z,0.20
2018-07-23T01:31:08.011Z,0.20
2018-07-23T01:34:07.930Z,0.20
2018-07-23T01:37:07.900Z,0.20
2018-07-23T01:40:07.853Z,0.10
2018-07-23T01:43:07.835Z,0.10
2018-07-23T01:46:07.822Z,0.20
2018-07-23T01:49:07.754Z,0.20
2018-07-23T01:52:07.718Z,0.20
2018-07-23T01:55:07.707Z,0.20
2018-07-23T01:58:07.727Z,0.10
2018-07-23T02:01:07.618Z,0.10
2018-07-23T02:04:07.582Z,0.20
2018-07-23T02:07:07.537Z,0.20
2018-07-23T02:10:08.027Z,0.20
2018-07-23T02:13:07.474Z,0.20
2018-07-23T02:16:07.444Z,0.20
2018-07-23T02:19:07.398Z,0.20
2018-07-23T02:22:07.382Z,0.20
2018-07-23T02:25:07.332Z,0.20
2018-07-23T02:28:07.302Z,0.20
2018-07-23T02:31:07.274Z,0.20
2018-07-23T02:34:08.020Z,0.20
2018-07-23T02:37:07.187Z,0.20
2018-07-23T02:40:07.193Z,0.10
2018-07-23T02:43:07.121Z,0.10
2018-07-23T02:46:07.108Z,0.10
2018-07-23T02:49:07.053Z,0.10
2018-07-23T02:52:07.054Z,0.20
2018-07-23T02:55:06.994Z,0.20
2018-07-23T02:58:06.975Z,0.10
2018-07-23T03:01:06.914Z,0.20
2018-07-23T03:04:06.918Z,0.20
2018-07-23T03:07:06.854Z,0.10
2018-07-23T03:10:06.841Z,0.10
2018-07-23T03:13:06.773Z,0.20
2018-07-23T03:16:06.773Z,0.10
2018-07-23T03:19:06.717Z,0.20
2018-07-23T03:22:06.709Z,0.10
2018-07-23T03:25:06.636Z,0.10
2018-07-23T03:28:06.628Z,0.10
2018-07-23T03:31:06.577Z,0.10
2018-07-23T03:34:06.558Z,0.10
2018-07-23T03:37:06.577Z,0.10
2018-07-23T03:40:06.497Z,0.20
2018-07-23T03:43:06.459Z,0.10
2018-07-23T03:46:06.428Z,0.10
2018-07-23T03:49:06.362Z,0.10
2018-07-23T03:52:06.368Z,0.10
2018-07-23T03:55:06.310Z,0.20
2018-07-23T03:58:06.436Z,0.10
2018-07-23T04:01:06.222Z,0.20
2018-07-23T04:04:06.228Z,0.10
2018-07-23T04:07:06.205Z,0.10
2018-07-23T04:10:06.223Z,0.20
2018-07-23T04:13:06.080Z,0.10
2018-07-23T04:16:06.066Z,0.10
2018-07-23T04:19:06.037Z,0.20
2018-07-23T04:22:06.011Z,0.10
2018-07-23T04:25:05.955Z,0.10
2018-07-23T04:28:05.955Z,0.10
2018-07-23T04:31:05.875Z,0.20
2018-07-23T04:34:05.860Z,0.10
2018-07-23T04:37:05.816Z,0.10
2018-07-23T04:40:05.800Z,0.10
2018-07-23T04:43:05.746Z,0.10
2018-07-23T04:46:05.724Z,0.10
2018-07-23T04:49:05.680Z,0.10
2018-07-23T04:52:05.668Z,0.10
2018-07-23T04:55:05.611Z,0.10
2018-07-23T04:58:05.598Z,0.10
2018-07-23T05:01:05.545Z,0.10
2018-07-23T05:04:05.511Z,0.10
2018-07-23T05:07:05.491Z,0.10
2018-07-23T05:10:05.458Z,0.10
2018-07-23T05:13:05.417Z,0.10
2018-07-23T05:16:05.445Z,0.10
2018-07-23T05:19:05.344Z,0.10
2018-07-23T05:22:05.329Z,0.10
2018-07-23T05:25:05.277Z,0.10
2018-07-23T05:28:05.266Z,0.10
2018-07-23T05:31:05.211Z,0.10
2018-07-23T05:34:05.173Z,0.10
2018-07-23T05:37:05.143Z,0.10
2018-07-23T05:40:05.111Z,0.10
2018-07-23T05:43:05.074Z,0.10
2018-07-23T05:46:05.039Z,0.10
2018-07-23T05:49:05.014Z,0.10
2018-07-23T05:52:05.518Z,0.10
2018-07-23T05:55:04.933Z,0.10
2018-07-23T05:58:04.904Z,0.10
2018-07-23T06:01:04.866Z,0.10
2018-07-23T06:04:04.857Z,0.10
2018-07-23T06:07:04.848Z,0.10
2018-07-23T06:10:04.780Z,0.10
2018-07-23T06:13:04.775Z,0.10
2018-07-23T06:16:04.705Z,0.10
2018-07-23T06:19:04.677Z,0.10
2018-07-23T06:22:04.643Z,0.10
2018-07-23T06:25:04.598Z,0.10
2018-07-23T06:28:04.599Z,0.10
2018-07-23T06:31:04.529Z,0.10
2018-07-23T06:34:04.527Z,0.10
2018-07-23T06:37:04.466Z,0.00
2018-07-23T06:40:04.495Z,0.10
2018-07-23T06:43:04.421Z,0.10
2018-07-23T06:46:04.399Z,0.10
2018-07-23T06:49:04.335Z,0.10
2018-07-23T06:52:04.333Z,0.10
2018-07-23T06:55:04.292Z,0.20
2018-07-23T06:58:04.277Z,0.10
2018-07-23T07:01:04.214Z,0.10
2018-07-23T07:04:04.212Z,0.00
2018-07-23T07:07:04.164Z,0.10
2018-07-23T07:10:04.132Z,0.00
2018-07-23T07:13:04.106Z,0.00
2018-07-23T07:16:04.077Z,0.10
2018-07-23T07:19:04.029Z,0.00
2018-07-23T07:22:04.005Z,0.10
2018-07-23T07:25:03.968Z,0.10
2018-07-23T07:28:03.953Z,0.10
2018-07-23T07:31:03.909Z,0.10
2018-07-23T07:34:03.902Z,0.10
2018-07-23T07:37:03.844Z,0.10
2018-07-23T07:40:03.830Z,0.10
2018-07-23T07:43:03.793Z,0.00
2018-07-23T07:46:03.756Z,0.00
2018-07-23T07:49:03.721Z,0.10
2018-07-23T07:52:03.694Z,0.00
2018-07-23T07:55:03.661Z,0.00
2018-07-23T07:58:03.650Z,0.10
2018-07-23T08:01:03.594Z,0.00
2018-07-23T08:04:03.591Z,0.00
2018-07-23T08:07:03.679Z,0.00
2018-07-23T08:10:03.529Z,0.10
2018-07-23T08:13:03.467Z,0.10
2018-07-23T08:16:03.465Z,0.10
2018-07-23T08:19:03.407Z,0.10
2018-07-23T08:22:03.430Z,0.10
2018-07-23T08:25:03.391Z,0.10
2018-07-23T08:28:03.339Z,0.10
2018-07-23T08:31:03.297Z,0.10
2018-07-23T08:34:03.288Z,0.10
2018-07-23T08:37:03.382Z,0.10
2018-07-23T08:40:03.228Z,0.10
2018-07-23T08:43:03.211Z,0.10
2018-07-23T08:46:03.166Z,0.00
2018-07-23T08:49:03.121Z,0.10
2018-07-23T08:52:03.104Z,0.10
2018-07-23T08:55:03.045Z,0.10
2018-07-23T08:58:03.044Z,0.10
2018-07-23T09:01:02.997Z,0.10
2018-07-23T09:04:03.051Z,0.10
2018-07-23T09:07:02.930Z,0.10
2018-07-23T09:10:02.922Z,0.20
2018-07-23T09:13:02.871Z,0.10
2018-07-23T09:16:02.853Z,0.30
2018-07-23T09:19:02.847Z,0.20
2018-07-23T09:22:02.828Z,0.10
2018-07-23T09:25:02.766Z,0.20
2018-07-23T09:28:02.815Z,0.10
2018-07-23T09:31:02.796Z,0.10
2018-07-23T09:34:02.681Z,0.10
2018-07-23T09:37:02.699Z,0.10
2018-07-23T09:40:02.641Z,0.10
2018-07-23T09:43:02.595Z,0.10
2018-07-23T09:46:02.595Z,0.10
2018-07-23T09:49:02.536Z,0.30
2018-07-23T09:52:02.522Z,0.30
2018-07-23T09:55:02.476Z,0.30
2018-07-23T09:58:02.568Z,0.30
2018-07-23T10:01:02.428Z,0.30
2018-07-23T10:04:02.450Z,0.30
2018-07-23T10:07:02.392Z,0.30
2018-07-23T10:10:02.381Z,0.20
2018-07-23T10:13:02.335Z,0.20
2018-07-23T10:16:02.311Z,0.20
2018-07-23T10:19:02.261Z,0.20
2018-07-23T10:22:02.287Z,0.20
2018-07-23T10:25:02.204Z,0.20
2018-07-23T10:28:02.190Z,0.10
2018-07-23T10:31:02.257Z,0.20
2018-07-23T10:34:02.161Z,0.20
2018-07-23T10:38:38.697Z,1.10
2018-07-23T10:41:38.688Z,0.30
2018-07-23T10:44:38.645Z,0.10
2018-07-23T10:47:38.622Z,0.10
2018-07-23T10:50:38.590Z,0.10
2018-07-23T10:53:38.608Z,0.10
2018-07-23T10:56:38.560Z,0.10
2018-07-23T10:59:38.542Z,0.10
2018-07-23T11:02:38.482Z,0.10
2018-07-23T11:05:38.465Z,0.10
2018-07-23T11:08:38.417Z,0.10
2018-07-23T11:11:38.413Z,0.10
2018-07-23T11:14:38.361Z,0.10
2018-07-23T11:17:38.346Z,0.10
2018-07-23T11:20:38.324Z,0.20
2018-07-23T11:23:38.315Z,0.20
2018-07-23T11:26:38.308Z,0.10
2018-07-23T11:29:38.239Z,0.10
2018-07-23T11:32:38.209Z,0.10
2018-07-23T11:35:38.187Z,0.10
2018-07-23T11:38:38.142Z,0.10
2018-07-23T11:41:38.173Z,0.40
2018-07-23T11:44:38.085Z,0.30
2018-07-23T11:47:38.065Z,0.30
2018-07-23T11:50:38.044Z,0.30
2018-07-23T11:53:38.062Z,0.30
2018-07-23T11:56:38.029Z,0.50
2018-07-23T11:59:37.981Z,0.80
2018-07-23T12:02:37.927Z,2.40
2018-07-23T12:05:37.926Z,5.20
2018-07-23T12:08:37.883Z,7.60
2018-07-23T12:11:37.876Z,2.40
2018-07-23T12:14:37.840Z,0.80
2018-07-23T12:17:37.890Z,0.40
2018-07-23T12:20:37.787Z,0.20
2018-07-23T12:23:37.765Z,0.10
2018-07-23T12:26:37.775Z,0.20
2018-07-23T12:29:37.717Z,0.10
2018-07-23T12:32:37.682Z,0.10
2018-07-23T12:35:37.656Z,0.30
2018-07-23T12:38:37.633Z,0.50
2018-07-23T12:41:37.606Z,0.30
2018-07-23T12:44:37.563Z,0.10
2018-07-23T12:47:37.555Z,0.10
2018-07-23T12:50:37.503Z,0.10
2018-07-23T12:53:37.511Z,0.10
2018-07-23T12:56:37.446Z,0.10
2018-07-23T12:59:37.484Z,0.10
2018-07-23T13:02:37.398Z,0.30
2018-07-23T13:05:37.377Z,0.20
2018-07-23T13:08:37.336Z,0.20
2018-07-23T13:11:37.321Z,0.20
2018-07-23T13:14:37.280Z,0.10
2018-07-23T13:17:37.270Z,0.10
2018-07-23T13:20:37.235Z,0.30
2018-07-23T13:23:37.217Z,0.70
2018-07-23T13:26:37.183Z,0.90
2018-07-23T13:29:37.199Z,0.80
2018-07-23T13:32:37.144Z,0.60
2018-07-23T13:35:37.118Z,0.30
2018-07-23T13:38:37.122Z,0.10
2018-07-23T13:41:37.074Z,0.10
2018-07-23T13:44:37.029Z,0.10
2018-07-23T13:47:37.008Z,0.10
2018-07-23T13:50:36.965Z,0.10
2018-07-23T13:53:37.003Z,0.10
2018-07-23T13:56:36.922Z,0.10
2018-07-23T13:59:36.946Z,0.00
2018-07-23T14:02:36.976Z,0.00
2018-07-23T14:05:36.882Z,0.10
2018-07-23T14:08:36.852Z,0.10
2018-07-23T14:11:36.842Z,0.00
2018-07-23T14:14:36.784Z,0.10
2018-07-23T14:17:36.725Z,0.10
2018-07-23T14:20:36.694Z,0.10
2018-07-23T14:23:36.673Z,0.10
2018-07-23T14:26:36.636Z,0.10
2018-07-23T14:29:36.615Z,0.10
2018-07-23T14:32:36.578Z,0.10
2018-07-23T14:35:36.559Z,0.10
2018-07-23T14:38:36.572Z,0.10
2018-07-23T14:41:36.531Z,0.10
2018-07-23T14:44:36.473Z,0.10
2018-07-23T14:47:36.452Z,0.10
2018-07-23T14:50:36.411Z,0.10
2018-07-23T14:53:36.402Z,0.10
2018-07-23T14:56:36.359Z,0.10
2018-07-23T14:59:36.420Z,0.10
2018-07-23T15:02:36.304Z,0.10
2018-07-23T15:05:36.285Z,0.10
2018-07-23T15:08:36.299Z,0.00
2018-07-23T15:11:36.235Z,0.00
2018-07-23T15:14:36.274Z,0.10
2018-07-23T15:17:36.209Z,0.10
2018-07-23T15:20:36.157Z,0.10
2018-07-23T15:23:36.201Z,0.10
2018-07-23T15:26:36.087Z,0.10
2018-07-23T15:29:36.063Z,0.10
2018-07-23T15:32:36.006Z,0.10
2018-07-23T15:35:36.019Z,0.00
2018-07-23T15:38:35.990Z,0.00
2018-07-23T15:41:35.993Z,0.00
2018-07-23T15:44:36.406Z,0.10
2018-07-23T15:47:36.011Z,0.10
2018-07-23T15:50:35.862Z,0.10
2018-07-23T15:53:35.841Z,0.00
2018-07-23T15:56:35.782Z,0.00
2018-07-23T15:59:35.775Z,0.00
2018-07-23T16:02:35.721Z,0.00
2018-07-23T16:05:35.719Z,0.00
2018-07-23T16:08:35.662Z,0.10
2018-07-23T16:11:35.736Z,0.10
2018-07-23T16:14:35.604Z,0.10
2018-07-23T16:17:35.623Z,0.10
2018-07-23T16:20:35.629Z,0.00
2018-07-23T16:23:35.555Z,0.00
2018-07-23T16:26:35.485Z,0.10
2018-07-23T16:29:35.465Z,0.00
2018-07-23T16:32:35.451Z,0.00
2018-07-23T16:35:35.409Z,0.00
2018-07-23T16:38:35.382Z,0.00
2018-07-23T16:41:35.366Z,0.00
2018-07-23T16:44:35.313Z,0.00
2018-07-23T16:47:35.336Z,0.00
2018-07-23T16:50:35.252Z,0.00
2018-07-23T16:53:35.265Z,0.00
2018-07-23T16:56:35.212Z,0.00
2018-07-23T16:59:35.189Z,0.00
2018-07-23T17:02:35.238Z,0.00
2018-07-23T17:05:35.133Z,0.10
2018-07-23T17:08:35.088Z,0.00
2018-07-23T17:11:35.061Z,0.00
2018-07-23T17:14:35.036Z,0.00
2018-07-23T17:17:35.012Z,0.00
2018-07-23T17:20:34.996Z,0.00
2018-07-23T17:23:34.956Z,0.00
2018-07-23T17:26:34.926Z,0.10
2018-07-23T17:29:34.925Z,0.00
2018-07-23T17:32:34.846Z,0.00
2018-07-23T17:35:34.901Z,0.00
2018-07-23T17:38:34.797Z,0.00
2018-07-23T17:41:34.837Z,0.00
2018-07-23T17:44:34.737Z,0.00
2018-07-23T17:47:34.728Z,0.00
2018-07-23T17:50:34.675Z,0.00
2018-07-23T17:53:34.672Z,0.00
2018-07-23T17:56:34.622Z,0.00
2018-07-23T17:59:34.628Z,0.00
2018-07-23T18:02:34.563Z,0.00
2018-07-23T18:05:34.549Z,0.00
2018-07-23T18:08:34.500Z,0.00
2018-07-23T18:11:34.488Z,0.00
2018-07-23T18:14:34.443Z,0.10
2018-07-23T18:17:34.449Z,0.00
2018-07-23T18:20:34.366Z,0.00
2018-07-23T18:23:34.349Z,0.10
2018-07-23T18:26:34.302Z,0.10
2018-07-23T18:29:34.303Z,0.00
2018-07-23T18:32:34.236Z,0.10
2018-07-23T18:35:34.217Z,0.00
2018-07-23T18:38:34.456Z,0.10
2018-07-23T18:41:34.156Z,0.10
2018-07-23T18:44:34.107Z,0.10
2018-07-23T18:47:34.111Z,0.10
2018-07-23T18:50:34.050Z,0.10
2018-07-23T18:53:34.027Z,0.10
2018-07-23T18:56:34.034Z,0.10
2018-07-23T18:59:34.000Z,0.00
2018-07-23T19:02:33.926Z,0.10
2018-07-23T19:05:33.943Z,0.10
2018-07-23T19:08:33.887Z,0.10
2018-07-23T19:11:33.880Z,0.10
2018-07-23T19:14:33.816Z,0.10
2018-07-23T19:17:33.807Z,0.10
2018-07-23T19:20:33.847Z,0.10
2018-07-23T19:23:33.769Z,0.10
2018-07-23T19:26:33.736Z,0.10
2018-07-23T19:29:33.667Z,0.10
2018-07-23T19:32:33.630Z,0.10
2018-07-23T19:35:33.651Z,0.00
2018-07-23T19:38:33.550Z,0.10
2018-07-23T19:41:33.530Z,0.10
2018-07-23T19:44:33.503Z,0.10
2018-07-23T19:47:33.472Z,0.10
2018-07-23T19:50:33.421Z,0.10
2018-07-23T19:53:33.394Z,0.00
2018-07-23T19:56:33.356Z,0.10
2018-07-23T19:59:33.316Z,0.10
2018-07-23T20:02:33.286Z,0.10
2018-07-23T20:05:33.250Z,0.10
2018-07-23T20:08:33.212Z,0.10
2018-07-23T20:11:33.188Z,0.00
2018-07-23T20:14:33.148Z,0.10
2018-07-23T20:17:33.278Z,0.10
2018-07-23T20:20:33.085Z,0.00
2018-07-23T20:23:33.082Z,0.10
2018-07-23T20:26:33.065Z,0.10
2018-07-23T20:29:33.031Z,0.10
2018-07-23T20:32:32.979Z,0.10
2018-07-23T20:35:32.953Z,0.10
2018-07-23T20:38:32.883Z,0.10
2018-07-23T20:41:32.875Z,0.10
2018-07-23T20:44:32.877Z,0.10
2018-07-23T20:47:32.828Z,0.10
2018-07-23T20:50:32.770Z,0.10
2018-07-23T20:53:34.594Z,0.10
2018-07-23T20:56:32.741Z,0.10
2018-07-23T20:59:32.679Z,0.10
2018-07-23T21:02:32.637Z,0.10
2018-07-23T21:05:32.634Z,0.10
2018-07-23T21:08:32.571Z,0.10
2018-07-23T21:11:32.591Z,0.10
2018-07-23T21:14:32.491Z,0.10
2018-07-23T21:17:32.546Z,0.10
2018-07-23T21:20:32.463Z,0.10
2018-07-23T21:23:32.427Z,0.10
2018-07-23T21:26:32.364Z,0.10
2018-07-23T21:29:32.358Z,0.10
2018-07-23T21:32:32.419Z,0.10
2018-07-23T21:35:32.300Z,0.10
2018-07-23T21:38:32.270Z,0.10
2018-07-23T21:41:32.220Z,0.10
2018-07-23T21:44:32.187Z,0.10
2018-07-23T21:47:34.128Z,0.10
2018-07-23T21:50:32.181Z,0.10
2018-07-23T21:53:32.128Z,0.10
2018-07-23T21:56:32.096Z,0.10
2018-07-23T21:59:32.008Z,0.10
2018-07-23T22:02:32.018Z,0.10
2018-07-23T22:05:31.972Z,0.10
2018-07-23T22:08:31.930Z,0.10
2018-07-23T22:11:31.920Z,0.10
2018-07-23T22:14:31.912Z,0.10
2018-07-23T22:17:31.855Z,0.10
2018-07-23T22:20:31.827Z,0.10
2018-07-23T22:23:31.859Z,0.10
2018-07-23T22:26:31.737Z,0.10
2018-07-23T22:29:31.715Z,0.10
2018-07-23T22:32:31.663Z,0.10
2018-07-23T22:35:31.661Z,0.10
2018-07-23T22:38:31.577Z,0.10
2018-07-23T22:41:31.579Z,0.10
2018-07-23T22:44:31.515Z,0.20
2018-07-23T22:47:31.497Z,0.10
2018-07-23T22:50:31.540Z,0.10
2018-07-23T22:53:31.436Z,0.10
2018-07-23T22:56:31.419Z,0.10
2018-07-23T22:59:31.418Z,0.10
2018-07-23T23:02:31.336Z,0.10
2018-07-23T23:05:31.304Z,0.10
2018-07-23T23:08:31.261Z,0.10
2018-07-23T23:11:31.261Z,0.20
2018-07-23T23:14:31.178Z,0.10
2018-07-23T23:17:31.183Z,0.20
2018-07-23T23:20:31.116Z,0.10
2018-07-23T23:23:31.104Z,0.10
2018-07-23T23:26:31.066Z,0.10
2018-07-23T23:29:31.061Z,0.10
2018-07-23T23:32:30.989Z,0.10
2018-07-23T23:35:30.970Z,0.20
2018-07-23T23:38:30.912Z,0.20
2018-07-23T23:41:30.915Z,0.10
2018-07-23T23:44:30.877Z,0.10
2018-07-23T23:47:30.832Z,0.10
2018-07-23T23:50:30.813Z,0.10
2018-07-23T23:53:32.658Z,0.10
2018-07-23T23:56:30.724Z,0.10
2018-07-23T23:59:30.722Z,0.10
